createdAt,value
2018-02-09T00:00:46.684Z,37.57
2018-02-09T00:01:46.671Z,37.52
2018-02-09T00:02:46.681Z,37.53
2018-02-09T00:03:46.669Z,37.49
2018-02-09T00:04:46.683Z,37.55
2018-02-09T00:05:46.936Z,37.55
2018-02-09T00:06:46.689Z,37.51
2018-02-09T00:07:46.668Z,37.5
2018-02-09T00:08:46.660Z,37.51
2018-02-09T00:09:46.665Z,37.53
2018-02-09T00:10:46.716Z,37.53
2018-02-09T00:11:46.719Z,37.51
2018-02-09T00:12:46.668Z,37.55
2018-02-09T00:13:46.661Z,37.52
2018-02-09T00:14:46.653Z,37.57
2018-02-09T00:15:46.695Z,37.52
2018-02-09T00:16:46.916Z,37.53
2018-02-09T00:17:46.667Z,37.58
2018-02-09T00:18:46.657Z,37.57
2018-02-09T00:19:46.663Z,37.51
2018-02-09T00:20:46.662Z,37.52
2018-02-09T00:21:46.697Z,37.52
2018-02-09T00:22:46.666Z,37.49
2018-02-09T00:23:46.672Z,37.52
2018-02-09T00:24:46.660Z,37.45
2018-02-09T00:25:46.651Z,37.36
2018-02-09T00:26:46.690Z,37.4
2018-02-09T00:27:46.677Z,37.36
2018-02-09T00:28:46.671Z,37.39
2018-02-09T00:29:46.659Z,37.41
2018-02-09T00:30:46.664Z,37.34
2018-02-09T00:31:46.782Z,37.29
2018-02-09T00:32:46.675Z,37.32
2018-02-09T00:33:46.719Z,37.3
2018-02-09T00:34:46.655Z,37.32
2018-02-09T00:35:46.661Z,37.32
2018-02-09T00:36:46.696Z,37.29
2018-02-09T00:37:46.668Z,37.31
2018-02-09T00:38:46.659Z,37.35
2018-02-09T00:39:46.672Z,37.39
2018-02-09T00:40:46.647Z,37.3
2018-02-09T00:41:46.646Z,37.32
2018-02-09T00:42:46.944Z,37.33
2018-02-09T00:43:46.673Z,37.27
2018-02-09T00:44:46.654Z,37.42
2018-02-09T00:45:46.713Z,37.39
2018-02-09T00:46:46.662Z,37.4
2018-02-09T00:47:46.681Z,37.49
2018-02-09T00:48:46.657Z,37.47
2018-02-09T00:50:46.792Z,37.51
2018-02-09T00:51:46.632Z,37.44
2018-02-09T00:52:46.664Z,37.46
2018-02-09T00:53:46.649Z,37.46
2018-02-09T00:54:46.627Z,37.46
2018-02-09T00:55:46.646Z,37.38
2018-02-09T00:56:46.641Z,37.49
2018-02-09T00:57:46.690Z,37.5
2018-02-09T00:58:46.660Z,37.46
2018-02-09T00:59:46.652Z,37.49
2018-02-09T01:00:46.655Z,37.53
2018-02-09T01:01:46.664Z,37.45
2018-02-09T01:02:46.673Z,37.55
2018-02-09T01:03:46.645Z,37.49
2018-02-09T01:04:46.892Z,37.52
2018-02-09T01:05:46.645Z,37.56
2018-02-09T01:06:46.631Z,37.54
2018-02-09T01:07:46.657Z,37.52
2018-02-09T01:08:46.640Z,37.5
2018-02-09T01:09:46.644Z,37.49
2018-02-09T01:10:46.629Z,37.53
2018-02-09T01:11:46.646Z,37.5
2018-02-09T01:12:46.751Z,37.55
2018-02-09T01:13:46.630Z,37.47
2018-02-09T01:14:46.653Z,37.49
2018-02-09T01:15:46.648Z,37.52
2018-02-09T01:16:46.663Z,37.52
2018-02-09T01:17:46.799Z,37.46
2018-02-09T01:18:46.632Z,37.53
2018-02-09T01:19:46.631Z,37.51
2018-02-09T01:20:46.737Z,37.56
2018-02-09T01:21:46.644Z,37.56
2018-02-09T01:22:46.667Z,37.5
2018-02-09T01:23:46.664Z,37.53
2018-02-09T01:24:46.640Z,37.5
2018-02-09T01:25:46.640Z,37.5
2018-02-09T01:26:46.638Z,37.53
2018-02-09T01:27:46.627Z,37.51
2018-02-09T01:28:46.701Z,37.53
2018-02-09T01:29:46.654Z,37.51
2018-02-09T01:30:46.646Z,37.58
2018-02-09T01:31:46.634Z,37.57
2018-02-09T01:32:46.643Z,37.58
2018-02-09T01:33:46.658Z,37.59
2018-02-09T01:34:46.626Z,37.59
2018-02-09T01:35:46.653Z,37.62
2018-02-09T01:36:46.651Z,37.65
2018-02-09T01:37:46.634Z,37.63
2018-02-09T01:38:46.645Z,37.63
2018-02-09T01:39:46.635Z,37.64
2018-02-09T01:40:46.626Z,37.62
2018-02-09T01:41:46.626Z,37.66
2018-02-09T01:42:46.634Z,37.6
2018-02-09T01:43:46.755Z,37.59
2018-02-09T01:44:46.642Z,37.63
2018-02-09T01:45:46.619Z,37.62
2018-02-09T01:46:46.634Z,37.6
2018-02-09T01:47:46.696Z,37.66
2018-02-09T01:48:46.650Z,37.66
2018-02-09T01:49:46.643Z,37.65
2018-02-09T01:50:46.642Z,37.63
2018-02-09T01:51:46.637Z,37.67
2018-02-09T01:52:46.621Z,37.65
2018-02-09T01:53:46.649Z,37.58
2018-02-09T01:54:46.679Z,37.66
2018-02-09T01:55:46.627Z,37.71
2018-02-09T01:56:46.633Z,37.72
2018-02-09T01:57:46.614Z,37.73
2018-02-09T01:58:46.623Z,37.65
2018-02-09T01:59:46.905Z,37.65
2018-02-09T02:00:46.644Z,37.71
2018-02-09T02:01:46.620Z,37.65
2018-02-09T02:02:46.628Z,37.71
2018-02-09T02:03:46.674Z,37.69
2018-02-09T02:04:46.663Z,37.69
2018-02-09T02:05:46.613Z,37.69
2018-02-09T02:06:46.649Z,37.75
2018-02-09T02:07:46.622Z,37.71
2018-02-09T02:08:46.652Z,37.71
2018-02-09T02:09:46.629Z,37.73
2018-02-09T02:10:46.639Z,37.67
2018-02-09T02:11:46.650Z,37.74
2018-02-09T02:12:46.617Z,37.75
2018-02-09T02:13:46.646Z,37.72
2018-02-09T02:14:46.617Z,37.67
2018-02-09T02:15:46.641Z,37.73
2018-02-09T02:16:46.635Z,37.69
2018-02-09T02:17:46.654Z,37.68
2018-02-09T02:18:46.628Z,37.74
2018-02-09T02:19:46.628Z,37.7
2018-02-09T02:20:46.662Z,37.75
2018-02-09T02:21:46.624Z,37.79
2018-02-09T02:22:46.621Z,37.67
2018-02-09T02:23:46.644Z,37.76
2018-02-09T02:24:46.622Z,37.79
2018-02-09T02:25:46.647Z,37.76
2018-02-09T02:26:46.608Z,37.7
2018-02-09T02:27:46.624Z,37.82
2018-02-09T02:28:46.645Z,37.79
2018-02-09T02:29:46.614Z,37.73
2018-02-09T02:30:46.636Z,37.82
2018-02-09T02:31:46.625Z,37.77
2018-02-09T02:32:46.617Z,37.79
2018-02-09T02:33:46.631Z,37.77
2018-02-09T02:34:46.604Z,37.77
2018-02-09T02:35:46.649Z,37.78
2018-02-09T02:36:46.612Z,37.74
2018-02-09T02:37:46.608Z,37.83
2018-02-09T02:38:46.618Z,37.83
2018-02-09T02:39:46.607Z,37.77
2018-02-09T02:40:46.613Z,37.8
2018-02-09T02:41:46.654Z,37.77
2018-02-09T02:42:46.602Z,37.8
2018-02-09T02:43:46.653Z,37.79
2018-02-09T02:44:46.613Z,37.82
2018-02-09T02:45:46.642Z,37.84
2018-02-09T02:46:46.599Z,37.8
2018-02-09T02:47:46.605Z,37.79
2018-02-09T02:48:46.599Z,37.83
2018-02-09T02:49:46.602Z,37.83
2018-02-09T02:50:46.738Z,37.83
2018-02-09T02:51:46.668Z,37.88
2018-02-09T02:52:46.604Z,37.81
2018-02-09T02:53:46.599Z,37.82
2018-02-09T02:54:46.613Z,37.88
2018-02-09T02:55:46.593Z,37.83
2018-02-09T02:56:46.612Z,37.82
2018-02-09T02:57:46.650Z,37.86
2018-02-09T02:58:46.659Z,37.85
2018-02-09T02:59:46.593Z,37.82
2018-02-09T03:00:46.606Z,37.9
2018-02-09T03:01:46.596Z,37.86
2018-02-09T03:02:46.618Z,37.89
2018-02-09T03:03:46.630Z,37.91
2018-02-09T03:04:46.593Z,37.9
2018-02-09T03:05:46.600Z,37.82
2018-02-09T03:06:46.867Z,37.82
2018-02-09T03:07:46.616Z,37.84
2018-02-09T03:08:46.613Z,37.87
2018-02-09T03:09:46.600Z,37.9
2018-02-09T03:10:46.600Z,37.83
2018-02-09T03:11:46.625Z,37.88
2018-02-09T03:12:46.592Z,37.8
2018-02-09T03:13:46.584Z,37.83
2018-02-09T03:14:46.649Z,37.8
2018-02-09T03:15:46.593Z,37.83
2018-02-09T03:16:46.615Z,37.83
2018-02-09T03:17:46.623Z,37.85
2018-02-09T03:18:46.597Z,37.87
2018-02-09T03:19:46.584Z,37.8
2018-02-09T03:20:46.582Z,37.9
2018-02-09T03:21:46.586Z,37.86
2018-02-09T03:22:46.624Z,37.87
2018-02-09T03:23:46.587Z,37.85
2018-02-09T03:24:46.599Z,37.85
2018-02-09T03:25:46.594Z,37.88
2018-02-09T03:26:46.606Z,37.85
2018-02-09T03:27:46.621Z,37.87
2018-02-09T03:28:46.582Z,37.89
2018-02-09T03:29:46.586Z,37.89
2018-02-09T03:30:46.579Z,37.84
2018-02-09T03:31:46.592Z,37.88
2018-02-09T03:32:46.717Z,37.89
2018-02-09T03:33:46.601Z,37.95
2018-02-09T03:34:46.606Z,37.91
2018-02-09T03:35:46.580Z,37.93
2018-02-09T03:36:46.588Z,38
2018-02-09T03:37:46.621Z,37.92
2018-02-09T03:38:46.589Z,37.9
2018-02-09T03:39:46.848Z,37.91
2018-02-09T03:40:46.621Z,37.91
2018-02-09T03:41:46.598Z,37.91
2018-02-09T03:42:46.573Z,37.91
2018-02-09T03:43:46.584Z,37.92
2018-02-09T03:44:46.589Z,37.87
2018-02-09T03:45:46.588Z,37.87
2018-02-09T03:46:46.574Z,37.87
2018-02-09T03:47:46.616Z,37.9
2018-02-09T03:48:46.598Z,37.92
2018-02-09T03:49:46.611Z,37.93
2018-02-09T03:50:46.588Z,37.91
2018-02-09T03:51:46.580Z,37.92
2018-02-09T03:52:46.611Z,37.9
2018-02-09T03:53:46.576Z,37.88
2018-02-09T03:54:46.568Z,37.9
2018-02-09T03:55:46.591Z,37.88
2018-02-09T03:56:46.578Z,37.97
2018-02-09T03:57:46.587Z,37.9
2018-02-09T03:58:46.799Z,37.94
2018-02-09T03:59:46.582Z,37.97
2018-02-09T04:00:46.594Z,37.95
2018-02-09T04:01:46.564Z,37.98
2018-02-09T04:02:46.610Z,37.95
2018-02-09T04:03:46.596Z,37.94
2018-02-09T04:04:46.570Z,38.03
2018-02-09T04:05:46.587Z,37.95
2018-02-09T04:07:46.597Z,37.95
2018-02-09T04:08:46.573Z,37.95
2018-02-09T04:09:46.587Z,37.99
2018-02-09T04:10:46.570Z,37.92
2018-02-09T04:11:46.591Z,37.93
2018-02-09T04:12:46.567Z,37.93
2018-02-09T04:13:46.582Z,37.97
2018-02-09T04:14:46.599Z,37.94
2018-02-09T04:15:46.578Z,37.95
2018-02-09T04:16:46.564Z,38
2018-02-09T04:17:46.590Z,37.97
2018-02-09T04:18:46.602Z,37.97
2018-02-09T04:19:46.582Z,37.98
2018-02-09T04:20:46.595Z,37.94
2018-02-09T04:21:46.579Z,37.94
2018-02-09T04:22:46.583Z,37.93
2018-02-09T04:23:46.589Z,37.92
2018-02-09T04:24:46.591Z,37.92
2018-02-09T04:25:46.564Z,37.96
2018-02-09T04:26:46.561Z,38.01
2018-02-09T04:27:46.569Z,38.05
2018-02-09T04:28:46.568Z,38
2018-02-09T04:29:46.858Z,38
2018-02-09T04:30:46.559Z,37.98
2018-02-09T04:31:46.580Z,37.98
2018-02-09T04:32:46.568Z,37.99
2018-02-09T04:33:46.587Z,37.92
2018-02-09T04:34:46.598Z,37.93
2018-02-09T04:35:46.571Z,37.96
2018-02-09T04:36:46.613Z,37.98
2018-02-09T04:37:46.594Z,38
2018-02-09T04:38:46.617Z,37.97
2018-02-09T04:39:46.566Z,38
2018-02-09T04:40:46.624Z,37.95
2018-02-09T04:41:46.593Z,37.93
2018-02-09T04:42:46.588Z,37.94
2018-02-09T04:43:46.562Z,37.94
2018-02-09T04:44:46.570Z,37.99
2018-02-09T04:45:46.573Z,37.94
2018-02-09T04:46:46.577Z,37.94
2018-02-09T04:47:46.572Z,37.97
2018-02-09T04:48:46.580Z,37.96
2018-02-09T04:49:46.629Z,38.02
2018-02-09T04:50:46.571Z,38
2018-02-09T04:51:46.664Z,37.92
2018-02-09T04:52:46.568Z,37.91
2018-02-09T04:53:46.569Z,37.92
2018-02-09T04:54:46.557Z,37.91
2018-02-09T04:55:46.571Z,37.87
2018-02-09T04:56:46.560Z,37.83
2018-02-09T04:57:46.562Z,37.85
2018-02-09T04:58:46.555Z,37.85
2018-02-09T04:59:46.568Z,37.85
2018-02-09T05:00:46.607Z,37.91
2018-02-09T05:01:46.544Z,37.95
2018-02-09T05:02:46.587Z,37.96
2018-02-09T05:03:46.567Z,37.94
2018-02-09T05:04:46.570Z,37.95
2018-02-09T05:05:46.825Z,38.04
2018-02-09T05:06:46.554Z,38.05
2018-02-09T05:07:46.557Z,38.04
2018-02-09T05:08:46.548Z,38.08
2018-02-09T05:09:46.582Z,38.1
2018-02-09T05:10:46.577Z,38.17
2018-02-09T05:11:46.554Z,38.09
2018-02-09T05:12:46.542Z,38.09
2018-02-09T05:13:46.599Z,38.19
2018-02-09T05:14:46.562Z,38.17
2018-02-09T05:15:46.505Z,38.2
2018-02-09T05:16:46.670Z,38.22
2018-02-09T05:17:46.581Z,38.22
2018-02-09T05:18:46.558Z,38.23
2018-02-09T05:19:46.544Z,38.17
2018-02-09T05:20:46.564Z,38.24
2018-02-09T05:21:46.570Z,38.24
2018-02-09T05:22:46.549Z,38.21
2018-02-09T05:23:46.546Z,38.22
2018-02-09T05:24:46.538Z,38.18
2018-02-09T05:25:46.557Z,38.21
2018-02-09T05:26:46.558Z,38.15
2018-02-09T05:27:46.552Z,38.19
2018-02-09T05:28:46.565Z,38.17
2018-02-09T05:29:46.543Z,38.16
2018-02-09T05:30:46.538Z,38.19
2018-02-09T05:31:46.541Z,38.15
2018-02-09T05:32:46.585Z,38.14
2018-02-09T05:33:46.545Z,38.13
2018-02-09T05:34:46.546Z,38.09
2018-02-09T05:35:46.547Z,38.1
2018-02-09T05:36:46.548Z,38.09
2018-02-09T05:37:46.574Z,38.07
2018-02-09T05:38:46.535Z,38.08
2018-02-09T05:39:46.598Z,38.11
2018-02-09T05:40:46.547Z,38.12
2018-02-09T05:41:46.542Z,38.07
2018-02-09T05:42:46.813Z,38.07
2018-02-09T05:43:46.543Z,38.08
2018-02-09T05:44:46.538Z,38.09
2018-02-09T05:45:46.547Z,38.11
2018-02-09T05:46:46.529Z,38.08
2018-02-09T05:47:46.569Z,38.05
2018-02-09T05:48:46.536Z,38.08
2018-02-09T05:49:46.555Z,38.11
2018-02-09T05:50:46.534Z,38.09
2018-02-09T05:51:46.537Z,38.08
2018-02-09T05:52:46.725Z,38.1
2018-02-09T05:53:46.533Z,38.12
2018-02-09T05:54:46.529Z,38.11
2018-02-09T05:55:46.519Z,38.14
2018-02-09T05:56:46.551Z,38.09
2018-02-09T05:57:46.567Z,38.08
2018-02-09T05:58:46.545Z,38.09
2018-02-09T05:59:46.545Z,38.09
2018-02-09T06:00:46.534Z,38.09
2018-02-09T06:01:46.524Z,38.1
2018-02-09T06:02:46.558Z,38.09
2018-02-09T06:03:46.565Z,38.09
2018-02-09T06:04:46.538Z,38.09
2018-02-09T06:05:46.540Z,38.06
2018-02-09T06:06:46.524Z,38.12
2018-02-09T06:07:46.517Z,38.09
2018-02-09T06:08:46.549Z,38.07
2018-02-09T06:09:46.534Z,38.08
2018-02-09T06:15:30.680Z,38.09
2018-02-09T06:16:30.215Z,38.09
2018-02-09T06:17:30.215Z,38.12
2018-02-09T06:18:30.244Z,38.07
2018-02-09T06:19:30.212Z,38.08
2018-02-09T06:20:30.201Z,38.05
2018-02-09T06:21:30.240Z,38.07
2018-02-09T06:22:30.210Z,38.08
2018-02-09T06:23:30.223Z,38.04
2018-02-09T06:24:30.209Z,38.08
2018-02-09T06:25:30.465Z,38.07
2018-02-09T06:26:30.215Z,38.08
2018-02-09T06:27:30.250Z,38.06
2018-02-09T06:28:30.278Z,38.06
2018-02-09T06:29:30.220Z,38.09
2018-02-09T06:30:30.205Z,38.05
2018-02-09T06:31:30.220Z,38.03
2018-02-09T06:32:30.219Z,38.04
2018-02-09T06:33:30.209Z,38.06
2018-02-09T06:34:30.208Z,38.04
2018-02-09T06:35:30.219Z,38.02
2018-02-09T06:36:30.247Z,38.05
2018-02-09T06:37:30.217Z,38.01
2018-02-09T06:38:30.214Z,38.02
2018-02-09T06:39:30.225Z,38.02
2018-02-09T06:40:30.210Z,38.04
2018-02-09T06:41:30.217Z,38.03
2018-02-09T06:42:30.200Z,38.02
2018-02-09T06:43:30.208Z,37.99
2018-02-09T06:44:30.215Z,38.03
2018-02-09T06:45:30.215Z,38.02
2018-02-09T06:46:30.262Z,38
2018-02-09T06:47:30.250Z,38
2018-02-09T06:48:30.252Z,38
2018-02-09T06:49:30.300Z,37.99
2018-02-09T06:50:30.288Z,37.99
2018-02-09T06:51:30.297Z,37.97
2018-02-09T06:52:30.260Z,37.97
2018-02-09T06:53:30.496Z,37.97
2018-02-09T06:54:30.268Z,37.96
2018-02-09T06:55:30.300Z,37.98
2018-02-09T06:56:30.254Z,37.97
2018-02-09T06:57:30.247Z,37.96
2018-02-09T06:58:30.277Z,37.97
2018-02-09T06:59:30.261Z,37.95
2018-02-09T07:00:30.274Z,37.95
2018-02-09T07:01:30.280Z,37.94
2018-02-09T07:02:30.251Z,37.96
2018-02-09T07:03:30.249Z,37.94
2018-02-09T07:04:30.253Z,37.95
2018-02-09T07:05:30.201Z,37.93
2018-02-09T07:06:30.273Z,37.92
2018-02-09T07:07:30.281Z,37.92
2018-02-09T07:08:30.261Z,37.91
2018-02-09T07:09:30.251Z,37.89
2018-02-09T07:10:30.284Z,37.9
2018-02-09T07:11:30.245Z,37.92
2018-02-09T07:12:30.290Z,37.92
2018-02-09T07:13:30.247Z,37.93
2018-02-09T07:14:30.258Z,37.93
2018-02-09T07:15:30.267Z,37.92
2018-02-09T07:16:30.258Z,37.92
2018-02-09T07:17:30.263Z,37.92
2018-02-09T07:18:30.245Z,37.87
2018-02-09T07:19:30.244Z,37.9
2018-02-09T07:20:30.282Z,37.91
2018-02-09T07:21:30.261Z,37.89
2018-02-09T07:22:30.260Z,37.91
2018-02-09T07:23:30.253Z,37.91
2018-02-09T07:24:30.239Z,37.9
2018-02-09T07:25:30.242Z,37.89
2018-02-09T07:26:30.247Z,37.88
2018-02-09T07:27:30.294Z,37.77
2018-02-09T07:28:30.244Z,37.77
2018-02-09T07:29:30.267Z,37.88
2018-02-09T07:30:30.258Z,37.87
2018-02-09T07:31:30.245Z,37.86
2018-02-09T07:32:30.251Z,37.88
2018-02-09T07:33:30.241Z,37.86
2018-02-09T07:34:30.259Z,37.85
2018-02-09T07:35:30.243Z,37.86
2018-02-09T07:36:30.279Z,37.86
2018-02-09T07:37:30.267Z,37.86
2018-02-09T07:38:30.245Z,37.85
2018-02-09T07:39:30.240Z,37.85
2018-02-09T07:40:30.239Z,37.86
2018-02-09T07:41:30.293Z,37.82
2018-02-09T07:42:30.296Z,37.87
2018-02-09T07:43:30.226Z,37.85
2018-02-09T07:44:30.318Z,37.88
2018-02-09T07:45:30.244Z,37.88
2018-02-09T07:46:30.228Z,37.76
2018-02-09T07:47:30.236Z,37.78
2018-02-09T07:48:30.237Z,37.82
2018-02-09T07:49:30.262Z,37.78
2018-02-09T07:50:30.220Z,37.82
2018-02-09T07:51:30.234Z,37.81
2018-02-09T07:52:30.218Z,37.81
2018-02-09T07:53:30.241Z,37.82
2018-02-09T07:54:30.273Z,37.8
2018-02-09T07:55:30.244Z,37.79
2018-02-09T07:56:30.326Z,37.82
2018-02-09T07:57:30.338Z,37.8
2018-02-09T07:58:30.233Z,37.8
2018-02-09T07:59:30.235Z,37.8
2018-02-09T08:00:30.244Z,37.77
2018-02-09T08:01:30.222Z,37.79
2018-02-09T08:02:30.237Z,37.77
2018-02-09T08:03:30.231Z,37.77
2018-02-09T08:04:30.225Z,37.79
2018-02-09T08:05:30.251Z,37.81
2018-02-09T08:06:30.231Z,37.76
2018-02-09T08:07:30.233Z,37.73
2018-02-09T08:08:30.216Z,37.76
2018-02-09T08:09:30.220Z,37.72
2018-02-09T08:10:30.268Z,37.71
2018-02-09T08:11:30.253Z,37.68
2018-02-09T08:12:30.219Z,37.67
2018-02-09T08:13:30.229Z,37.62
2018-02-09T08:14:30.244Z,37.76
2018-02-09T08:15:30.247Z,37.77
2018-02-09T08:16:30.249Z,37.69
2018-02-09T08:17:30.244Z,37.77
2018-02-09T08:18:30.246Z,37.62
2018-02-09T08:19:30.238Z,37.62
2018-02-09T08:20:30.330Z,37.54
2018-02-09T08:21:30.215Z,37.59
2018-02-09T08:22:30.213Z,37.52
2018-02-09T08:23:30.223Z,37.45
2018-02-09T08:24:30.221Z,37.44
2018-02-09T08:25:30.261Z,37.47
2018-02-09T08:26:30.220Z,37.51
2018-02-09T08:27:30.266Z,37.51
2018-02-09T08:28:30.206Z,37.57
2018-02-09T08:29:30.225Z,37.55
2018-02-09T08:30:30.242Z,37.52
2018-02-09T08:31:30.236Z,37.55
2018-02-09T08:32:30.211Z,37.57
2018-02-09T08:33:30.527Z,37.61
2018-02-09T08:34:30.261Z,37.59
2018-02-09T08:35:30.252Z,37.72
2018-02-09T08:36:30.272Z,37.79
2018-02-09T08:37:30.204Z,37.82
2018-02-09T08:38:30.221Z,37.72
2018-02-09T08:39:30.236Z,37.77
2018-02-09T08:40:30.475Z,37.71
2018-02-09T08:41:30.223Z,37.59
2018-02-09T08:42:30.253Z,37.7
2018-02-09T08:43:30.207Z,37.59
2018-02-09T08:44:30.207Z,37.61
2018-02-09T08:45:30.337Z,37.71
2018-02-09T08:46:30.241Z,37.64
2018-02-09T08:47:30.229Z,37.68
2018-02-09T08:48:30.254Z,37.67
2018-02-09T08:49:30.211Z,37.61
2018-02-09T08:50:30.246Z,37.5
2018-02-09T08:51:30.224Z,37.63
2018-02-09T08:52:30.369Z,37.59
2018-02-09T08:53:30.223Z,37.59
2018-02-09T08:54:30.247Z,37.48
2018-02-09T08:55:30.203Z,37.48
2018-02-09T08:56:30.245Z,37.5
2018-02-09T08:57:30.244Z,37.51
2018-02-09T08:58:30.213Z,37.46
2018-02-09T08:59:30.217Z,37.51
2018-02-09T09:00:30.441Z,37.5
2018-02-09T09:01:30.229Z,37.58
2018-02-09T09:02:30.254Z,37.53
2018-02-09T09:03:30.197Z,37.6
2018-02-09T09:04:30.214Z,37.53
2018-02-09T09:05:30.200Z,37.52
2018-02-09T09:06:30.250Z,37.57
2018-02-09T09:07:30.224Z,37.59
2018-02-09T09:08:30.210Z,37.49
2018-02-09T09:09:30.203Z,37.5
2018-02-09T09:10:30.202Z,37.45
2018-02-09T09:11:30.213Z,37.44
2018-02-09T09:12:30.200Z,37.43
2018-02-09T09:13:30.213Z,37.53
2018-02-09T09:14:30.215Z,37.55
2018-02-09T09:15:30.197Z,37.59
2018-02-09T09:16:30.274Z,37.54
2018-02-09T09:17:30.235Z,37.51
2018-02-09T09:18:30.208Z,37.52
2018-02-09T09:19:30.198Z,37.52
2018-02-09T09:20:30.295Z,37.5
2018-02-09T09:21:30.227Z,37.49
2018-02-09T09:22:30.203Z,37.5
2018-02-09T09:23:30.202Z,37.5
2018-02-09T09:24:30.222Z,37.56
2018-02-09T09:25:30.239Z,37.54
2018-02-09T09:26:30.239Z,37.55
2018-02-09T09:27:30.209Z,37.61
2018-02-09T09:28:30.219Z,37.57
2018-02-09T09:30:30.193Z,37.6
2018-02-09T09:31:30.205Z,37.57
2018-02-09T09:32:30.211Z,37.59
2018-02-09T09:33:30.192Z,37.63
2018-02-09T09:34:30.206Z,37.62
2018-02-09T09:35:30.193Z,37.63
2018-02-09T09:36:30.207Z,37.6
2018-02-09T09:37:30.242Z,37.58
2018-02-09T09:38:30.191Z,37.59
2018-02-09T09:39:30.205Z,37.56
2018-02-09T09:40:30.168Z,37.57
2018-02-09T09:41:30.233Z,37.58
2018-02-09T09:42:30.197Z,37.48
2018-02-09T09:43:30.206Z,37.29
2018-02-09T09:44:30.209Z,37.53
2018-02-09T09:45:30.239Z,37.51
2018-02-09T09:46:30.234Z,37.52
2018-02-09T09:47:30.247Z,37.51
2018-02-09T09:48:30.220Z,37.48
2018-02-09T09:49:30.190Z,37.58
2018-02-09T09:50:30.185Z,37.37
2018-02-09T09:51:30.210Z,37.44
2018-02-09T09:52:30.214Z,37.42
2018-02-09T09:53:30.208Z,37.55
2018-02-09T09:54:30.197Z,37.57
2018-02-09T09:55:30.180Z,37.6
2018-02-09T09:56:30.193Z,37.55
2018-02-09T09:57:30.561Z,37.64
2018-02-09T09:58:30.202Z,37.64
2018-02-09T09:59:30.220Z,37.66
2018-02-09T10:00:30.180Z,37.62
2018-02-09T10:01:30.200Z,37.67
2018-02-09T10:02:30.204Z,37.67
2018-02-09T10:03:30.210Z,37.68
2018-02-09T10:04:30.270Z,37.69
2018-02-09T10:05:30.188Z,37.7
2018-02-09T10:06:30.182Z,37.68
2018-02-09T10:07:30.184Z,37.71
2018-02-09T10:08:30.196Z,37.7
2018-02-09T10:09:30.218Z,37.71
2018-02-09T10:10:30.229Z,37.7
2018-02-09T10:11:30.191Z,37.72
2018-02-09T10:12:30.206Z,37.7
2018-02-09T10:13:30.233Z,37.74
2018-02-09T10:14:30.177Z,37.74
2018-02-09T10:15:30.222Z,37.74
2018-02-09T10:16:30.176Z,37.75
2018-02-09T10:17:30.176Z,37.74
2018-02-09T10:18:30.306Z,37.75
2018-02-09T10:19:30.224Z,37.76
2018-02-09T10:20:30.182Z,37.77
2018-02-09T10:21:30.182Z,37.75
2018-02-09T10:22:30.177Z,37.76
2018-02-09T10:23:30.188Z,37.77
2018-02-09T10:24:30.194Z,37.77
2018-02-09T10:25:30.223Z,37.76
2018-02-09T10:26:30.199Z,37.75
2018-02-09T10:27:30.190Z,37.78
2018-02-09T10:28:30.187Z,37.8
2018-02-09T10:29:30.214Z,37.78
2018-02-09T10:30:30.192Z,37.77
2018-02-09T10:31:30.172Z,37.79
2018-02-09T10:32:30.207Z,37.81
2018-02-09T10:33:30.188Z,37.81
2018-02-09T10:34:30.188Z,37.81
2018-02-09T10:35:30.181Z,37.8
2018-02-09T10:36:30.185Z,37.8
2018-02-09T10:37:30.194Z,37.82
2018-02-09T10:38:30.211Z,37.81
2018-02-09T10:39:30.181Z,37.79
2018-02-09T10:40:30.188Z,37.81
2018-02-09T10:41:30.193Z,37.8
2018-02-09T10:42:30.173Z,37.81
2018-02-09T10:43:30.143Z,37.83
2018-02-09T10:44:30.161Z,37.8
2018-02-09T10:45:30.188Z,37.82
2018-02-09T10:46:30.245Z,37.82
2018-02-09T10:47:30.169Z,37.81
2018-02-09T10:48:30.178Z,37.83
2018-02-09T10:49:30.190Z,37.83
2018-02-09T10:50:30.163Z,37.79
2018-02-09T10:51:30.186Z,37.83
2018-02-09T10:52:30.174Z,37.8
2018-02-09T10:53:30.205Z,37.8
2018-02-09T10:54:30.188Z,37.82
2018-02-09T10:55:30.161Z,37.73
2018-02-09T10:56:30.166Z,37.81
2018-02-09T10:57:30.281Z,37.82
2018-02-09T10:58:30.163Z,37.8
2018-02-09T10:59:30.204Z,37.79
2018-02-09T11:00:30.189Z,37.81
2018-02-09T11:01:30.168Z,37.83
2018-02-09T11:02:30.163Z,37.81
2018-02-09T11:03:30.168Z,37.82
2018-02-09T11:04:30.161Z,37.78
2018-02-09T11:05:30.204Z,37.82
2018-02-09T11:06:30.203Z,37.79
2018-02-09T11:07:30.201Z,37.81
2018-02-09T11:08:30.167Z,37.8
2018-02-09T11:09:30.189Z,37.79
2018-02-09T11:10:30.211Z,37.78
2018-02-09T11:11:30.189Z,37.73
2018-02-09T11:12:30.144Z,37.75
2018-02-09T11:13:30.165Z,37.81
2018-02-09T11:14:30.163Z,37.72
2018-02-09T11:15:30.173Z,37.77
2018-02-09T11:16:30.163Z,37.78
2018-02-09T11:17:30.166Z,37.8
2018-02-09T11:18:30.164Z,37.75
2018-02-09T11:19:30.164Z,37.78
2018-02-09T11:20:30.166Z,37.74
2018-02-09T11:21:30.152Z,37.73
2018-02-09T11:22:30.162Z,37.7
2018-02-09T11:23:30.213Z,37.76
2018-02-09T11:24:30.139Z,37.72
2018-02-09T11:25:30.153Z,37.7
2018-02-09T11:26:30.167Z,37.68
2018-02-09T11:27:30.166Z,37.72
2018-02-09T11:28:30.181Z,37.73
2018-02-09T11:29:30.176Z,37.75
2018-02-09T11:30:30.169Z,37.67
2018-02-09T11:31:30.168Z,37.71
2018-02-09T11:32:30.177Z,37.71
2018-02-09T11:33:30.186Z,37.76
2018-02-09T11:34:30.167Z,37.68
2018-02-09T11:35:30.185Z,37.74
2018-02-09T11:36:30.139Z,37.72
2018-02-09T11:37:30.158Z,37.71
2018-02-09T11:38:30.197Z,37.74
2018-02-09T11:39:30.179Z,37.67
2018-02-09T11:40:30.164Z,37.75
2018-02-09T11:41:30.144Z,37.74
2018-02-09T11:42:30.147Z,37.73
2018-02-09T11:43:30.176Z,37.71
2018-02-09T11:44:30.230Z,37.7
2018-02-09T11:45:30.279Z,37.7
2018-02-09T11:46:30.163Z,37.67
2018-02-09T11:47:30.148Z,37.68
2018-02-09T11:48:30.143Z,37.69
2018-02-09T11:49:30.175Z,37.67
2018-02-09T11:50:30.194Z,37.72
2018-02-09T11:51:30.155Z,37.72
2018-02-09T11:52:30.162Z,37.69
2018-02-09T11:53:30.295Z,37.68
2018-02-09T11:54:30.156Z,37.68
2018-02-09T11:55:30.140Z,37.68
2018-02-09T11:56:30.143Z,37.66
2018-02-09T11:57:30.144Z,37.69
2018-02-09T11:58:30.296Z,37.71
2018-02-09T12:00:30.149Z,37.68
2018-02-09T12:01:30.144Z,37.67
2018-02-09T12:02:30.174Z,37.68
2018-02-09T12:03:30.184Z,37.67
2018-02-09T12:04:30.194Z,37.73
2018-02-09T12:05:30.152Z,37.67
2018-02-09T12:06:30.158Z,37.66
2018-02-09T12:07:30.158Z,37.64
2018-02-09T12:08:30.144Z,37.67
2018-02-09T12:09:30.129Z,37.66
2018-02-09T12:10:30.131Z,37.67
2018-02-09T12:11:30.138Z,37.69
2018-02-09T12:12:30.139Z,37.68
2018-02-09T12:13:30.132Z,37.68
2018-02-09T12:14:30.141Z,37.68
2018-02-09T12:15:30.153Z,37.6
2018-02-09T12:16:30.176Z,37.69
2018-02-09T12:17:30.195Z,37.66
2018-02-09T12:18:30.142Z,37.65
2018-02-09T12:19:30.142Z,37.67
2018-02-09T12:20:30.163Z,37.64
2018-02-09T12:21:30.168Z,37.64
2018-02-09T12:22:30.131Z,37.6
2018-02-09T12:23:30.137Z,37.68
2018-02-09T12:24:30.230Z,37.69
2018-02-09T12:25:30.243Z,37.62
2018-02-09T12:26:30.140Z,37.68
2018-02-09T12:27:30.131Z,37.67
2018-02-09T12:28:30.317Z,37.68
2018-02-09T12:29:30.145Z,37.68
2018-02-09T12:31:30.177Z,37.65
2018-02-09T12:32:30.133Z,37.65
2018-02-09T12:33:30.193Z,37.66
2018-02-09T12:34:30.209Z,37.61
2018-02-09T12:35:30.171Z,37.65
2018-02-09T12:36:30.229Z,37.66
2018-02-09T12:37:30.142Z,37.67
2018-02-09T12:38:30.141Z,37.63
2018-02-09T12:39:30.134Z,37.63
2018-02-09T12:40:30.215Z,37.64
2018-02-09T12:41:30.145Z,37.65
2018-02-09T12:42:30.122Z,37.68
2018-02-09T12:43:30.138Z,37.63
2018-02-09T12:44:30.186Z,37.68
2018-02-09T12:45:30.124Z,37.59
2018-02-09T12:46:30.245Z,37.7
2018-02-09T12:47:30.239Z,37.73
2018-02-09T12:48:30.160Z,37.73
2018-02-09T12:49:30.118Z,37.62
2018-02-09T12:50:30.186Z,37.7
2018-02-09T12:51:30.195Z,37.68
2018-02-09T12:52:30.246Z,37.68
2018-02-09T12:53:30.261Z,37.7
2018-02-09T12:54:30.159Z,37.91
2018-02-09T12:55:30.156Z,37.85
2018-02-09T12:56:30.198Z,37.99
2018-02-09T12:57:30.206Z,38.21
2018-02-09T12:58:30.124Z,38.07
2018-02-09T12:59:30.248Z,38.15
2018-02-09T13:00:30.171Z,38.15
2018-02-09T13:01:30.173Z,38.16
2018-02-09T13:02:30.177Z,38.12
2018-02-09T13:03:30.198Z,38.15
2018-02-09T13:04:30.211Z,38.11
2018-02-09T13:05:30.186Z,38.09
2018-02-09T13:06:30.153Z,38.07